KAL792 RJFF-RKSI
Flight info
| Callsign | KAL792 |
|---|---|
| Flight time | 0h 54m |
| Altitude | 36000 |
| Route | DGC G339 BEETL Y208 INVOK Z91 PSN Y782 BITUX Z53 BASEM Y685 GUKDO GUKDO2E |
| Aircraft | A21N/M-SDE2E3FGHIJ1RWXY/LB1 |
Departure
| Time | 2026-05-07 15:09 |
|---|---|
| Airport | Fukuoka Airport (RJFF) |
Arrival
| Time | 2026-05-07 16:03 |
|---|---|
| Airport | Incheon International Airport (RKSI) |
| Time | Latitude | Longitude | Altitude | Speed | Heading |
|---|---|---|---|---|---|
| 2026-05-07 14:50 | 33.58569 | 130.44498 | 39 ft | 0 kts | 242° |
| 2026-05-07 14:58 | 33.58612 | 130.44549 | 40 ft | 0 kts | 152° |
| 2026-05-07 15:02 | 33.58608 | 130.44551 | 40 ft | 2 kts | 150° |
| 2026-05-07 15:02 | 33.58561 | 130.44633 | 40 ft | 19 kts | 135° |
| 2026-05-07 15:02 | 33.58450 | 130.44712 | 42 ft | 20 kts | 150° |
| 2026-05-07 15:02 | 33.58332 | 130.44803 | 44 ft | 21 kts | 133° |
| 2026-05-07 15:03 | 33.58229 | 130.44926 | 42 ft | 21 kts | 152° |
| 2026-05-07 15:03 | 33.58095 | 130.45015 | 42 ft | 22 kts | 150° |
| 2026-05-07 15:03 | 33.57958 | 130.45108 | 39 ft | 23 kts | 150° |
| 2026-05-07 15:03 | 33.57813 | 130.45205 | 44 ft | 24 kts | 151° |
| 2026-05-07 15:04 | 33.57705 | 130.45276 | 44 ft | 10 kts | 150° |
| 2026-05-07 15:04 | 33.57645 | 130.45319 | 46 ft | 7 kts | 149° |
| 2026-05-07 15:04 | 33.57618 | 130.45347 | 48 ft | 1 kts | 109° |
| 2026-05-07 15:04 | 33.57618 | 130.45363 | 49 ft | 3 kts | 76° |
| 2026-05-07 15:05 | 33.57629 | 130.45399 | 50 ft | 6 kts | 61° |
| 2026-05-07 15:05 | 33.57648 | 130.45441 | 51 ft | 2 kts | 63° |
| 2026-05-07 15:05 | 33.57656 | 130.45459 | 51 ft | 3 kts | 41° |
| 2026-05-07 15:05 | 33.57678 | 130.45442 | 51 ft | 4 kts | 320° |
| 2026-05-07 15:06 | 33.57688 | 130.45433 | 50 ft | 0 kts | 330° |
| 2026-05-07 15:08 | 33.57689 | 130.45433 | 50 ft | 1 kts | 330° |
| 2026-05-07 15:08 | 33.57867 | 130.45310 | 43 ft | 68 kts | 329° |
| 2026-05-07 15:08 | 33.58508 | 130.44879 | 46 ft | 141 kts | 331° |
| 2026-05-07 15:09 | 33.59505 | 130.44206 | 320 ft | 170 kts | 332° |
| 2026-05-07 15:09 | 33.60528 | 130.43508 | 1087 ft | 171 kts | 329° |
| 2026-05-07 15:09 | 33.61584 | 130.42819 | 1859 ft | 173 kts | 328° |
| 2026-05-07 15:09 | 33.62640 | 130.42145 | 2564 ft | 170 kts | 327° |
| 2026-05-07 15:10 | 33.63677 | 130.41477 | 3180 ft | 169 kts | 325° |
| 2026-05-07 15:10 | 33.64366 | 130.41032 | 3525 ft | 170 kts | 326° |
| 2026-05-07 15:10 | 33.65772 | 130.40130 | 4188 ft | 173 kts | 326° |
| 2026-05-07 15:10 | 33.66481 | 130.39675 | 4530 ft | 176 kts | 325° |
| 2026-05-07 15:11 | 33.67594 | 130.38956 | 4955 ft | 187 kts | 326° |
| 2026-05-07 15:11 | 33.68680 | 130.38037 | 5356 ft | 196 kts | 314° |
| 2026-05-07 15:11 | 33.69751 | 130.36948 | 5777 ft | 208 kts | 315° |
| 2026-05-07 15:11 | 33.70910 | 130.35810 | 6185 ft | 222 kts | 316° |
| 2026-05-07 15:12 | 33.72163 | 130.34599 | 6533 ft | 242 kts | 316° |
| 2026-05-07 15:12 | 33.73535 | 130.33289 | 6870 ft | 261 kts | 317° |
| 2026-05-07 15:12 | 33.74995 | 130.31903 | 7365 ft | 272 kts | 317° |
| 2026-05-07 15:12 | 33.76493 | 130.30480 | 8074 ft | 276 kts | 317° |
| 2026-05-07 15:13 | 33.78003 | 130.29047 | 8842 ft | 277 kts | 317° |
| 2026-05-07 15:13 | 33.79511 | 130.27616 | 9512 ft | 277 kts | 317° |
| 2026-05-07 15:13 | 33.81025 | 130.26179 | 9860 ft | 277 kts | 316° |
| 2026-05-07 15:13 | 33.82571 | 130.24701 | 9991 ft | 295 kts | 316° |
| 2026-05-07 15:14 | 33.84244 | 130.23096 | 10026 ft | 321 kts | 317° |
| 2026-05-07 15:14 | 33.86068 | 130.21368 | 10057 ft | 345 kts | 317° |
| 2026-05-07 15:14 | 33.88011 | 130.19532 | 10199 ft | 364 kts | 317° |
| 2026-05-07 15:14 | 33.90043 | 130.17594 | 10393 ft | 379 kts | 317° |
| 2026-05-07 15:15 | 33.92131 | 130.15607 | 10783 ft | 386 kts | 318° |
| 2026-05-07 15:15 | 33.94246 | 130.13592 | 11306 ft | 389 kts | 317° |
| 2026-05-07 15:15 | 33.96371 | 130.11557 | 11829 ft | 391 kts | 317° |
| 2026-05-07 15:15 | 33.98509 | 130.09503 | 12313 ft | 394 kts | 317° |
| 2026-05-07 15:16 | 34.00670 | 130.07450 | 12788 ft | 397 kts | 317° |
| 2026-05-07 15:16 | 34.02846 | 130.05385 | 13305 ft | 399 kts | 317° |
| 2026-05-07 15:16 | 34.05031 | 130.03304 | 13809 ft | 402 kts | 316° |
| 2026-05-07 15:16 | 34.07232 | 130.01203 | 14224 ft | 405 kts | 316° |
| 2026-05-07 15:17 | 34.09448 | 129.99082 | 14642 ft | 408 kts | 316° |
| 2026-05-07 15:17 | 34.11679 | 129.96941 | 15130 ft | 412 kts | 316° |
| 2026-05-07 15:17 | 34.13932 | 129.94779 | 15635 ft | 415 kts | 315° |
| 2026-05-07 15:17 | 34.16199 | 129.92600 | 16108 ft | 418 kts | 315° |
| 2026-05-07 15:18 | 34.18483 | 129.90404 | 16550 ft | 421 kts | 315° |
| 2026-05-07 15:18 | 34.20788 | 129.88188 | 16976 ft | 425 kts | 315° |
| 2026-05-07 15:18 | 34.23106 | 129.85957 | 17392 ft | 428 kts | 315° |
| 2026-05-07 15:18 | 34.25443 | 129.83706 | 17796 ft | 432 kts | 314° |
| 2026-05-07 15:19 | 34.27799 | 129.81436 | 17932 ft | 434 kts | 314° |
| 2026-05-07 15:19 | 34.30168 | 129.79175 | 17952 ft | 434 kts | 315° |
| 2026-05-07 15:19 | 34.32539 | 129.76915 | 17935 ft | 434 kts | 315° |
| 2026-05-07 15:19 | 34.34910 | 129.74650 | 17921 ft | 434 kts | 315° |
| 2026-05-07 15:20 | 34.37275 | 129.72385 | 17923 ft | 434 kts | 315° |
| 2026-05-07 15:20 | 34.39645 | 129.70112 | 17919 ft | 434 kts | 315° |
| 2026-05-07 15:20 | 34.42010 | 129.67846 | 17917 ft | 434 kts | 315° |
| 2026-05-07 15:20 | 34.44343 | 129.65612 | 17920 ft | 434 kts | 315° |
| 2026-05-07 15:21 | 34.46712 | 129.63336 | 18181 ft | 436 kts | 315° |
| 2026-05-07 15:21 | 34.49093 | 129.61043 | 18525 ft | 438 kts | 315° |
| 2026-05-07 15:21 | 34.51480 | 129.58741 | 18875 ft | 440 kts | 315° |
| 2026-05-07 15:21 | 34.53883 | 129.56425 | 19274 ft | 441 kts | 315° |
| 2026-05-07 15:22 | 34.56287 | 129.54114 | 19688 ft | 442 kts | 315° |
| 2026-05-07 15:22 | 34.58699 | 129.51797 | 20088 ft | 443 kts | 315° |
| 2026-05-07 15:22 | 34.61124 | 129.49464 | 20444 ft | 445 kts | 315° |
| 2026-05-07 15:22 | 34.63551 | 129.47123 | 20809 ft | 447 kts | 315° |
| 2026-05-07 15:23 | 34.65995 | 129.44764 | 21235 ft | 450 kts | 315° |
| 2026-05-07 15:23 | 34.68454 | 129.42384 | 21668 ft | 453 kts | 315° |
| 2026-05-07 15:23 | 34.70926 | 129.39994 | 22063 ft | 456 kts | 315° |
| 2026-05-07 15:23 | 34.73413 | 129.37588 | 22423 ft | 458 kts | 315° |
| 2026-05-07 15:24 | 34.75913 | 129.35165 | 22772 ft | 461 kts | 315° |
| 2026-05-07 15:24 | 34.78421 | 129.32737 | 23186 ft | 461 kts | 314° |
| 2026-05-07 15:24 | 34.80932 | 129.30306 | 23548 ft | 462 kts | 314° |
| 2026-05-07 15:24 | 34.83463 | 129.27863 | 23794 ft | 464 kts | 314° |
| 2026-05-07 15:25 | 34.85997 | 129.25418 | 24064 ft | 465 kts | 314° |
| 2026-05-07 15:25 | 34.88532 | 129.22972 | 24393 ft | 464 kts | 314° |
| 2026-05-07 15:25 | 34.91052 | 129.20533 | 24749 ft | 462 kts | 314° |
| 2026-05-07 15:25 | 34.93566 | 129.18101 | 25103 ft | 461 kts | 314° |
| 2026-05-07 15:26 | 34.96073 | 129.15674 | 25440 ft | 460 kts | 314° |
| 2026-05-07 15:26 | 34.98577 | 129.13243 | 25775 ft | 459 kts | 314° |
| 2026-05-07 15:26 | 35.01070 | 129.10824 | 26129 ft | 458 kts | 314° |
| 2026-05-07 15:26 | 35.03559 | 129.08406 | 26480 ft | 457 kts | 314° |
| 2026-05-07 15:27 | 35.06039 | 129.05998 | 26806 ft | 456 kts | 314° |
| 2026-05-07 15:27 | 35.08550 | 129.03625 | 27131 ft | 460 kts | 318° |
| 2026-05-07 15:27 | 35.11382 | 129.01721 | 27450 ft | 468 kts | 326° |
| 2026-05-07 15:27 | 35.14317 | 129.00007 | 27788 ft | 468 kts | 327° |
| 2026-05-07 15:28 | 35.17260 | 128.98290 | 28109 ft | 467 kts | 326° |
| 2026-05-07 15:28 | 35.20180 | 128.96558 | 28457 ft | 466 kts | 325° |
| 2026-05-07 15:28 | 35.23090 | 128.94807 | 28776 ft | 465 kts | 325° |
| 2026-05-07 15:28 | 35.25986 | 128.93055 | 29075 ft | 465 kts | 325° |
| 2026-05-07 15:29 | 35.28883 | 128.91308 | 29360 ft | 464 kts | 325° |
| 2026-05-07 15:29 | 35.31770 | 128.89561 | 29601 ft | 463 kts | 325° |
| 2026-05-07 15:29 | 35.34656 | 128.87816 | 29818 ft | 461 kts | 325° |
| 2026-05-07 15:29 | 35.37521 | 128.86081 | 29914 ft | 458 kts | 324° |
| 2026-05-07 15:30 | 35.43239 | 128.82613 | 29890 ft | 458 kts | 324° |
| 2026-05-07 15:30 | 35.48940 | 128.79157 | 29897 ft | 457 kts | 324° |
| 2026-05-07 15:31 | 35.54641 | 128.75691 | 29890 ft | 457 kts | 324° |
| 2026-05-07 15:31 | 35.60285 | 128.72259 | 29721 ft | 454 kts | 324° |
| 2026-05-07 15:32 | 35.63152 | 128.70513 | 29484 ft | 454 kts | 324° |
| 2026-05-07 15:32 | 35.65989 | 128.68780 | 29229 ft | 455 kts | 324° |
| 2026-05-07 15:32 | 35.68785 | 128.67072 | 28974 ft | 455 kts | 324° |
| 2026-05-07 15:32 | 35.71661 | 128.65311 | 28774 ft | 455 kts | 323° |
| 2026-05-07 15:33 | 35.74452 | 128.63604 | 28503 ft | 453 kts | 324° |
| 2026-05-07 15:33 | 35.77279 | 128.61877 | 28241 ft | 454 kts | 323° |
| 2026-05-07 15:33 | 35.80113 | 128.60142 | 27991 ft | 455 kts | 323° |
| 2026-05-07 15:33 | 35.82946 | 128.58405 | 27726 ft | 454 kts | 324° |
| 2026-05-07 15:34 | 35.85774 | 128.56667 | 27490 ft | 455 kts | 323° |
| 2026-05-07 15:34 | 35.88614 | 128.54917 | 27248 ft | 456 kts | 323° |
| 2026-05-07 15:34 | 35.91457 | 128.53169 | 27004 ft | 458 kts | 324° |
| 2026-05-07 15:34 | 35.94311 | 128.51415 | 26761 ft | 458 kts | 324° |
| 2026-05-07 15:35 | 35.97168 | 128.49658 | 26561 ft | 459 kts | 323° |
| 2026-05-07 15:35 | 36.00023 | 128.47898 | 26314 ft | 459 kts | 324° |
| 2026-05-07 15:35 | 36.02877 | 128.46134 | 26076 ft | 460 kts | 324° |
| 2026-05-07 15:35 | 36.05739 | 128.44365 | 25836 ft | 461 kts | 324° |
| 2026-05-07 15:36 | 36.08611 | 128.42593 | 25601 ft | 461 kts | 324° |
| 2026-05-07 15:36 | 36.11483 | 128.40817 | 25360 ft | 462 kts | 324° |
| 2026-05-07 15:36 | 36.14358 | 128.39037 | 25122 ft | 463 kts | 324° |
| 2026-05-07 15:36 | 36.17244 | 128.37248 | 24899 ft | 464 kts | 324° |
| 2026-05-07 15:37 | 36.20123 | 128.35462 | 24676 ft | 463 kts | 324° |
| 2026-05-07 15:37 | 36.23006 | 128.33681 | 24469 ft | 463 kts | 324° |
| 2026-05-07 15:37 | 36.25892 | 128.31895 | 24241 ft | 463 kts | 324° |
| 2026-05-07 15:37 | 36.28767 | 128.30109 | 24012 ft | 463 kts | 324° |
| 2026-05-07 15:38 | 36.31653 | 128.28316 | 23893 ft | 464 kts | 324° |
| 2026-05-07 15:38 | 36.34544 | 128.26517 | 23880 ft | 465 kts | 324° |
| 2026-05-07 15:38 | 36.37436 | 128.24719 | 23888 ft | 465 kts | 324° |
| 2026-05-07 15:38 | 36.40331 | 128.22916 | 23893 ft | 465 kts | 324° |
| 2026-05-07 15:39 | 36.43226 | 128.21112 | 23893 ft | 465 kts | 324° |
| 2026-05-07 15:39 | 36.46118 | 128.19306 | 23898 ft | 465 kts | 324° |
| 2026-05-07 15:39 | 36.49010 | 128.17499 | 23914 ft | 465 kts | 324° |
| 2026-05-07 15:39 | 36.51897 | 128.15692 | 23913 ft | 464 kts | 324° |
| 2026-05-07 15:40 | 36.54784 | 128.13885 | 23909 ft | 464 kts | 324° |
| 2026-05-07 15:40 | 36.57668 | 128.12078 | 23894 ft | 464 kts | 324° |
| 2026-05-07 15:40 | 36.60552 | 128.10272 | 23900 ft | 464 kts | 324° |
| 2026-05-07 15:40 | 36.63433 | 128.08463 | 23900 ft | 464 kts | 324° |
| 2026-05-07 15:41 | 36.66315 | 128.06653 | 23901 ft | 464 kts | 324° |
| 2026-05-07 15:41 | 36.69199 | 128.04839 | 23901 ft | 464 kts | 324° |
| 2026-05-07 15:41 | 36.72082 | 128.03025 | 23938 ft | 464 kts | 323° |
| 2026-05-07 15:41 | 36.74968 | 128.01210 | 23919 ft | 464 kts | 323° |
| 2026-05-07 15:42 | 36.77846 | 127.99392 | 23920 ft | 464 kts | 323° |
| 2026-05-07 15:42 | 36.80707 | 127.97546 | 23914 ft | 461 kts | 322° |
| 2026-05-07 15:42 | 36.83367 | 127.95420 | 23922 ft | 449 kts | 313° |
| 2026-05-07 15:42 | 36.85609 | 127.92806 | 23911 ft | 433 kts | 302° |
| 2026-05-07 15:43 | 36.87416 | 127.89858 | 23915 ft | 425 kts | 296° |
| 2026-05-07 15:43 | 36.89113 | 127.86833 | 23898 ft | 424 kts | 296° |
| 2026-05-07 15:43 | 36.90798 | 127.83847 | 23216 ft | 417 kts | 297° |
| 2026-05-07 15:43 | 36.92463 | 127.80893 | 22144 ft | 415 kts | 296° |
| 2026-05-07 15:44 | 36.94120 | 127.77945 | 21097 ft | 415 kts | 296° |
| 2026-05-07 15:44 | 36.95773 | 127.75000 | 20327 ft | 413 kts | 295° |
| 2026-05-07 15:44 | 36.97241 | 127.71941 | 19574 ft | 408 kts | 292° |
| 2026-05-07 15:44 | 36.98637 | 127.68878 | 18738 ft | 402 kts | 291° |
| 2026-05-07 15:45 | 36.99997 | 127.65856 | 17834 ft | 397 kts | 291° |
| 2026-05-07 15:45 | 37.01326 | 127.62854 | 16899 ft | 391 kts | 292° |
| 2026-05-07 15:45 | 37.02607 | 127.59874 | 16023 ft | 387 kts | 292° |
| 2026-05-07 15:45 | 37.03849 | 127.56903 | 15412 ft | 385 kts | 292° |
| 2026-05-07 15:46 | 37.06226 | 127.51024 | 14131 ft | 372 kts | 292° |
| 2026-05-07 15:46 | 37.07352 | 127.48126 | 13320 ft | 367 kts | 292° |
| 2026-05-07 15:46 | 37.08425 | 127.45290 | 12487 ft | 364 kts | 291° |
| 2026-05-07 15:47 | 37.09492 | 127.42411 | 11718 ft | 363 kts | 291° |
| 2026-05-07 15:47 | 37.10423 | 127.39492 | 11264 ft | 349 kts | 285° |
| 2026-05-07 15:47 | 37.11026 | 127.36665 | 11068 ft | 331 kts | 282° |
| 2026-05-07 15:47 | 37.11542 | 127.33946 | 10989 ft | 311 kts | 281° |
| 2026-05-07 15:48 | 37.12019 | 127.31389 | 10970 ft | 292 kts | 281° |
| 2026-05-07 15:48 | 37.12464 | 127.28999 | 10956 ft | 271 kts | 281° |
| 2026-05-07 15:48 | 37.12882 | 127.26771 | 10957 ft | 258 kts | 281° |
| 2026-05-07 15:48 | 37.13294 | 127.24592 | 10982 ft | 257 kts | 281° |
| 2026-05-07 15:49 | 37.13706 | 127.22428 | 10832 ft | 253 kts | 281° |
| 2026-05-07 15:49 | 37.14097 | 127.20280 | 10379 ft | 253 kts | 281° |
| 2026-05-07 15:49 | 37.14477 | 127.18127 | 9925 ft | 253 kts | 281° |
| 2026-05-07 15:49 | 37.14848 | 127.15968 | 9428 ft | 253 kts | 281° |
| 2026-05-07 15:50 | 37.15212 | 127.13813 | 8965 ft | 253 kts | 281° |
| 2026-05-07 15:50 | 37.15568 | 127.11658 | 8506 ft | 252 kts | 281° |
| 2026-05-07 15:50 | 37.15917 | 127.09507 | 8057 ft | 252 kts | 281° |
| 2026-05-07 15:50 | 37.16259 | 127.07357 | 7612 ft | 251 kts | 281° |
| 2026-05-07 15:51 | 37.16593 | 127.05217 | 7208 ft | 251 kts | 281° |
| 2026-05-07 15:51 | 37.16925 | 127.03066 | 7007 ft | 252 kts | 281° |
| 2026-05-07 15:51 | 37.17253 | 127.00906 | 6974 ft | 252 kts | 281° |
| 2026-05-07 15:51 | 37.17576 | 126.98748 | 6972 ft | 252 kts | 282° |
| 2026-05-07 15:52 | 37.17882 | 126.96584 | 6982 ft | 251 kts | 281° |
| 2026-05-07 15:52 | 37.18184 | 126.94427 | 6993 ft | 251 kts | 281° |
| 2026-05-07 15:52 | 37.18484 | 126.92265 | 6973 ft | 251 kts | 281° |
| 2026-05-07 15:52 | 37.18784 | 126.90103 | 6982 ft | 252 kts | 281° |
| 2026-05-07 15:53 | 37.19081 | 126.87952 | 6829 ft | 248 kts | 281° |
| 2026-05-07 15:53 | 37.19368 | 126.85824 | 6421 ft | 247 kts | 281° |
| 2026-05-07 15:53 | 37.19645 | 126.83698 | 5966 ft | 248 kts | 281° |
| 2026-05-07 15:53 | 37.19916 | 126.81561 | 5504 ft | 248 kts | 281° |
| 2026-05-07 15:54 | 37.20177 | 126.79427 | 5143 ft | 245 kts | 281° |
| 2026-05-07 15:54 | 37.20423 | 126.77350 | 4978 ft | 235 kts | 281° |
| 2026-05-07 15:54 | 37.20647 | 126.75392 | 4939 ft | 219 kts | 281° |
| 2026-05-07 15:54 | 37.20873 | 126.73596 | 4931 ft | 197 kts | 291° |
| 2026-05-07 15:55 | 37.21210 | 126.72574 | 4945 ft | 190 kts | 300° |
| 2026-05-07 15:55 | 37.21817 | 126.71109 | 4918 ft | 189 kts | 301° |
| 2026-05-07 15:55 | 37.22652 | 126.69164 | 4770 ft | 189 kts | 302° |
| 2026-05-07 15:55 | 37.23299 | 126.67731 | 4653 ft | 189 kts | 302° |
| 2026-05-07 15:56 | 37.23928 | 126.66289 | 4514 ft | 185 kts | 305° |
| 2026-05-07 15:56 | 37.24435 | 126.65503 | 4475 ft | 167 kts | 317° |
| 2026-05-07 15:56 | 37.25277 | 126.64624 | 4381 ft | 150 kts | 324° |
| 2026-05-07 15:56 | 37.26067 | 126.63872 | 4233 ft | 137 kts | 325° |
| 2026-05-07 15:57 | 37.26843 | 126.63168 | 4102 ft | 144 kts | 326° |
| 2026-05-07 15:57 | 37.27739 | 126.62370 | 4015 ft | 164 kts | 326° |
| 2026-05-07 15:57 | 37.28670 | 126.61543 | 3911 ft | 164 kts | 326° |
| 2026-05-07 15:57 | 37.29602 | 126.60717 | 3801 ft | 164 kts | 326° |
| 2026-05-07 15:58 | 37.30529 | 126.59894 | 3635 ft | 163 kts | 326° |
| 2026-05-07 15:58 | 37.31452 | 126.59076 | 3447 ft | 161 kts | 326° |
| 2026-05-07 15:58 | 37.32362 | 126.58268 | 3245 ft | 160 kts | 326° |
| 2026-05-07 15:58 | 37.33265 | 126.57467 | 3030 ft | 159 kts | 326° |
| 2026-05-07 15:59 | 37.34164 | 126.56670 | 2814 ft | 158 kts | 326° |
| 2026-05-07 15:59 | 37.35053 | 126.55880 | 2605 ft | 152 kts | 327° |
| 2026-05-07 15:59 | 37.35873 | 126.55152 | 2399 ft | 138 kts | 327° |
| 2026-05-07 15:59 | 37.36655 | 126.54458 | 2216 ft | 138 kts | 327° |
| 2026-05-07 16:00 | 37.37438 | 126.53763 | 2034 ft | 137 kts | 326° |
| 2026-05-07 16:00 | 37.38217 | 126.53072 | 1851 ft | 138 kts | 326° |
| 2026-05-07 16:00 | 37.38985 | 126.52389 | 1682 ft | 130 kts | 324° |
| 2026-05-07 16:00 | 37.39681 | 126.51771 | 1514 ft | 120 kts | 324° |
| 2026-05-07 16:01 | 37.40362 | 126.51165 | 1347 ft | 120 kts | 325° |
| 2026-05-07 16:01 | 37.41039 | 126.50567 | 1155 ft | 121 kts | 324° |
| 2026-05-07 16:01 | 37.41739 | 126.49942 | 1001 ft | 122 kts | 324° |
| 2026-05-07 16:01 | 37.42422 | 126.49334 | 821 ft | 122 kts | 324° |
| 2026-05-07 16:02 | 37.43136 | 126.48704 | 641 ft | 125 kts | 322° |
| 2026-05-07 16:02 | 37.43852 | 126.48063 | 479 ft | 127 kts | 322° |
| 2026-05-07 16:02 | 37.44571 | 126.47420 | 330 ft | 126 kts | 323° |
| 2026-05-07 16:02 | 37.45285 | 126.46784 | 163 ft | 128 kts | 322° |
| 2026-05-07 16:03 | 37.46017 | 126.46132 | 38 ft | 122 kts | 324° |
| 2026-05-07 16:03 | 37.46592 | 126.45615 | 38 ft | 77 kts | 323° |
| 2026-05-07 16:03 | 37.46861 | 126.45374 | 38 ft | 34 kts | 322° |
| 2026-05-07 16:03 | 37.46937 | 126.45266 | 37 ft | 14 kts | 296° |
| 2026-05-07 16:04 | 37.46981 | 126.45152 | 36 ft | 15 kts | 296° |
| 2026-05-07 16:04 | 37.46987 | 126.45114 | 38 ft | 3 kts | 217° |
| 2026-05-07 16:04 | 37.46900 | 126.45044 | 37 ft | 27 kts | 232° |
| 2026-05-07 16:04 | 37.46804 | 126.44870 | 38 ft | 14 kts | 233° |
| 2026-05-07 16:05 | 37.46742 | 126.44763 | 38 ft | 16 kts | 234° |
| 2026-05-07 16:05 | 37.46708 | 126.44631 | 38 ft | 17 kts | 263° |
| 2026-05-07 16:05 | 37.46648 | 126.44503 | 38 ft | 18 kts | 235° |
| 2026-05-07 16:05 | 37.46586 | 126.44358 | 38 ft | 19 kts | 242° |
| 2026-05-07 16:06 | 37.46503 | 126.44222 | 35 ft | 21 kts | 233° |
| 2026-05-07 16:06 | 37.46416 | 126.44074 | 38 ft | 22 kts | 237° |
| 2026-05-07 16:06 | 37.46328 | 126.43913 | 38 ft | 23 kts | 233° |
| 2026-05-07 16:06 | 37.46232 | 126.43749 | 38 ft | 24 kts | 234° |
| 2026-05-07 16:07 | 37.46209 | 126.43679 | 38 ft | 4 kts | 313° |
| 2026-05-07 16:07 | 37.46239 | 126.43656 | 37 ft | 6 kts | 329° |
| 2026-05-07 16:07 | 37.46278 | 126.43623 | 38 ft | 8 kts | 325° |
| 2026-05-07 16:07 | 37.46326 | 126.43580 | 38 ft | 9 kts | 324° |
| 2026-05-07 16:08 | 37.46383 | 126.43528 | 36 ft | 11 kts | 325° |
| 2026-05-07 16:08 | 37.46435 | 126.43484 | 38 ft | 7 kts | 332° |
| 2026-05-07 16:08 | 37.46448 | 126.43451 | 38 ft | 5 kts | 261° |
| 2026-05-07 16:08 | 37.46442 | 126.43401 | 38 ft | 7 kts | 258° |
| 2026-05-07 16:09 | 37.46435 | 126.43358 | 38 ft | 2 kts | 258° |
| 2026-05-07 16:09 | 37.46431 | 126.43335 | 38 ft | 3 kts | 259° |
| 2026-05-07 16:09 | 37.46431 | 126.43334 | 38 ft | 0 kts | 260° |